Startpagina
METAR-TAF:

METAR-TAF

Vliegvelden :

Luchthaven Damascus

Damascus, Syrië

breedte: 33-25N, lengte: 036-31E, hoogte: 608 m

Actueel weer

Dit bericht is 15 minuten geleden gemaakt, om 13:00 UTC
Wind 6 kt uit het zuidwesten
Temperatuur 34°C
Vochtigheid 25%
Druk 1011 hPa
Zicht 10 km of meer
Weinig wolken op 3000 ft

METAR: OSDI 191300Z 22006KT 9999 FEW030 34/11 Q1011

Tijdstip: 16:15 (13:15 UTC)

Verwachting

Dit bericht is 3 uur en het 15 minuten geleden gemaakt, om 10:00 UTC
Verwachting geldig van 19 om 12 UTC tot 20 om 18 UTC
Wind 10 kt uit het zuidwesten
Zicht 10 km of meer
geen wolken onder 1500 m en geen cumulonimbus
Wijzigt naar
van 19 om 18 UTC tot 19 om 20 UTC
Wind 3 kt uit variabele richting
Zicht 10 km of meer
geen wolken onder 1500 m en geen cumulonimbus
Tijdelijke
van 20 om 09 UTC tot 20 om 18 UTC
Wind 10 kt uit het zuidwesten
Zicht 10 km of meer
geen wolken onder 1500 m en geen cumulonimbus

TAF: OSDI 191000Z 1912/2018 22010KT CAVOK BECMG 1918/1920 VRB03KT CAVOK TEMPO 2009/2018 22010KT CAVOK

Waarnemingen en weersverwachtingen van meer dan 4000 vliegvelden (METAR en TAF).

De beschikbare stations zijn de gele en rode punten op de kaart.

Ga met uw muis naar het station om de naam te zien.

Klik dan om waarnemingen en weersverwachtingen te zien.

kaart wijzigen: klik op de groene knoppen met een zwart kruis om in te zoomen, op de groene knop met een streepje om uit te zoomen of op de groene pijlen voor aangrenzende kaarten.


METAR-TAF: